sensor_id;sensor_type;location;lat;lon;timestamp;temperature;humidity
20524;DHT22;10420;48.542;12.270;2022-11-20T00:04:52;4.10;99.90
20524;DHT22;10420;48.542;12.270;2022-11-20T00:09:53;4.20;99.90
20524;DHT22;10420;48.542;12.270;2022-11-20T00:14:54;4.30;99.90
20524;DHT22;10420;48.542;12.270;2022-11-20T00:19:54;4.40;99.90
20524;DHT22;10420;48.542;12.270;2022-11-20T00:24:55;4.50;99.90
20524;DHT22;10420;48.542;12.270;2022-11-20T00:29:57;4.50;99.90
20524;DHT22;10420;48.542;12.270;2022-11-20T00:34:58;4.30;99.90
20524;DHT22;10420;48.542;12.270;2022-11-20T00:39:58;4.30;99.90
20524;DHT22;10420;48.542;12.270;2022-11-20T00:44:59;4.40;99.90
20524;DHT22;10420;48.542;12.270;2022-11-20T00:50:00;4.50;99.90
20524;DHT22;10420;48.542;12.270;2022-11-20T00:55:00;4.60;99.90
20524;DHT22;10420;48.542;12.270;2022-11-20T01:00:01;4.70;99.90
20524;DHT22;10420;48.542;12.270;2022-11-20T01:05:02;4.80;99.90
20524;DHT22;10420;48.542;12.270;2022-11-20T01:10:02;4.90;99.90
20524;DHT22;10420;48.542;12.270;2022-11-20T01:15:03;4.80;99.90
20524;DHT22;10420;48.542;12.270;2022-11-20T01:20:05;4.90;99.90
20524;DHT22;10420;48.542;12.270;2022-11-20T01:25:06;4.90;99.90
20524;DHT22;10420;48.542;12.270;2022-11-20T01:30:07;5.00;99.90
20524;DHT22;10420;48.542;12.270;2022-11-20T01:35:08;5.00;99.90
20524;DHT22;10420;48.542;12.270;2022-11-20T01:40:10;5.00;99.90
20524;DHT22;10420;48.542;12.270;2022-11-20T01:50:50;4.30;99.90
20524;DHT22;10420;48.542;12.270;2022-11-20T01:55:53;4.30;99.90
20524;DHT22;10420;48.542;12.270;2022-11-20T02:00:55;4.10;99.90
20524;DHT22;10420;48.542;12.270;2022-11-20T02:06:33;4.10;99.90
20524;DHT22;10420;48.542;12.270;2022-11-20T02:11:26;4.20;99.90
20524;DHT22;10420;48.542;12.270;2022-11-20T02:16:36;4.20;99.90
20524;DHT22;10420;48.542;12.270;2022-11-20T02:27:01;4.20;99.90
20524;DHT22;10420;48.542;12.270;2022-11-20T02:32:03;4.20;99.90
20524;DHT22;10420;48.542;12.270;2022-11-20T02:37:03;4.20;99.90
20524;DHT22;10420;48.542;12.270;2022-11-20T02:42:04;4.20;99.90
20524;DHT22;10420;48.542;12.270;2022-11-20T02:47:05;4.20;99.90
20524;DHT22;10420;48.542;12.270;2022-11-20T02:52:06;4.20;99.90
20524;DHT22;10420;48.542;12.270;2022-11-20T02:57:06;4.40;99.90
20524;DHT22;10420;48.542;12.270;2022-11-20T03:02:07;4.30;99.90
20524;DHT22;10420;48.542;12.270;2022-11-20T03:07:09;4.30;99.90
20524;DHT22;10420;48.542;12.270;2022-11-20T03:12:10;4.30;99.90
20524;DHT22;10420;48.542;12.270;2022-11-20T03:17:10;4.40;99.90
20524;DHT22;10420;48.542;12.270;2022-11-20T03:22:11;4.40;99.90
20524;DHT22;10420;48.542;12.270;2022-11-20T03:27:12;4.50;99.90
20524;DHT22;10420;48.542;12.270;2022-11-20T03:32:12;4.40;99.90
20524;DHT22;10420;48.542;12.270;2022-11-20T03:37:13;4.40;99.90
20524;DHT22;10420;48.542;12.270;2022-11-20T03:42:14;4.50;99.90
20524;DHT22;10420;48.542;12.270;2022-11-20T03:47:33;4.60;99.90
20524;DHT22;10420;48.542;12.270;2022-11-20T03:52:33;4.70;99.90
20524;DHT22;10420;48.542;12.270;2022-11-20T03:57:34;4.80;99.90
20524;DHT22;10420;48.542;12.270;2022-11-20T04:02:35;4.90;99.90
20524;DHT22;10420;48.542;12.270;2022-11-20T04:07:35;4.60;99.90
20524;DHT22;10420;48.542;12.270;2022-11-20T04:12:36;4.70;99.90
20524;DHT22;10420;48.542;12.270;2022-11-20T04:17:37;4.70;99.90
20524;DHT22;10420;48.542;12.270;2022-11-20T04:22:37;4.80;99.90
20524;DHT22;10420;48.542;12.270;2022-11-20T04:27:38;4.70;99.90
20524;DHT22;10420;48.542;12.270;2022-11-20T04:32:39;4.80;99.90
20524;DHT22;10420;48.542;12.270;2022-11-20T04:37:39;4.80;99.90
20524;DHT22;10420;48.542;12.270;2022-11-20T04:42:40;4.80;99.90
20524;DHT22;10420;48.542;12.270;2022-11-20T04:47:40;4.90;99.90
20524;DHT22;10420;48.542;12.270;2022-11-20T04:52:41;4.80;99.90
20524;DHT22;10420;48.542;12.270;2022-11-20T04:57:42;4.90;99.90
20524;DHT22;10420;48.542;12.270;2022-11-20T05:02:42;4.90;99.90
20524;DHT22;10420;48.542;12.270;2022-11-20T05:07:43;4.90;99.90
20524;DHT22;10420;48.542;12.270;2022-11-20T05:12:44;4.90;99.90
20524;DHT22;10420;48.542;12.270;2022-11-20T05:17:51;4.90;99.90
20524;DHT22;10420;48.542;12.270;2022-11-20T05:22:52;4.80;99.90
20524;DHT22;10420;48.542;12.270;2022-11-20T05:27:56;4.80;99.90
20524;DHT22;10420;48.542;12.270;2022-11-20T05:32:57;4.80;99.90
20524;DHT22;10420;48.542;12.270;2022-11-20T05:37:57;4.70;99.90
20524;DHT22;10420;48.542;12.270;2022-11-20T05:42:59;4.70;99.90
20524;DHT22;10420;48.542;12.270;2022-11-20T05:48:00;4.70;99.90
20524;DHT22;10420;48.542;12.270;2022-11-20T05:53:00;4.70;99.90
20524;DHT22;10420;48.542;12.270;2022-11-20T05:58:01;4.70;99.90
20524;DHT22;10420;48.542;12.270;2022-11-20T06:03:02;4.70;99.90
20524;DHT22;10420;48.542;12.270;2022-11-20T06:08:03;4.60;99.90
20524;DHT22;10420;48.542;12.270;2022-11-20T06:13:03;4.70;99.90
20524;DHT22;10420;48.542;12.270;2022-11-20T06:18:04;4.60;99.90
20524;DHT22;10420;48.542;12.270;2022-11-20T06:23:04;4.60;99.90
20524;DHT22;10420;48.542;12.270;2022-11-20T06:28:06;4.50;99.90
20524;DHT22;10420;48.542;12.270;2022-11-20T06:33:06;4.50;99.90
20524;DHT22;10420;48.542;12.270;2022-11-20T06:38:07;4.50;99.90
20524;DHT22;10420;48.542;12.270;2022-11-20T06:43:10;4.60;99.90
20524;DHT22;10420;48.542;12.270;2022-11-20T06:48:11;4.50;99.90
20524;DHT22;10420;48.542;12.270;2022-11-20T06:53:12;4.50;99.90
20524;DHT22;10420;48.542;12.270;2022-11-20T06:58:13;4.50;99.90
20524;DHT22;10420;48.542;12.270;2022-11-20T07:03:14;4.50;99.90
20524;DHT22;10420;48.542;12.270;2022-11-20T07:08:15;4.60;99.90
20524;DHT22;10420;48.542;12.270;2022-11-20T07:13:16;4.70;99.90
20524;DHT22;10420;48.542;12.270;2022-11-20T07:18:17;4.70;99.90
20524;DHT22;10420;48.542;12.270;2022-11-20T07:23:18;4.80;99.90
20524;DHT22;10420;48.542;12.270;2022-11-20T07:28:19;4.80;99.90
20524;DHT22;10420;48.542;12.270;2022-11-20T07:33:20;4.80;99.90
20524;DHT22;10420;48.542;12.270;2022-11-20T07:38:21;4.90;99.90
20524;DHT22;10420;48.542;12.270;2022-11-20T07:43:21;5.00;99.90
20524;DHT22;10420;48.542;12.270;2022-11-20T07:48:22;5.20;99.90
20524;DHT22;10420;48.542;12.270;2022-11-20T07:53:23;5.30;99.90
20524;DHT22;10420;48.542;12.270;2022-11-20T07:58:24;5.30;99.90
20524;DHT22;10420;48.542;12.270;2022-11-20T08:03:25;5.30;99.90
20524;DHT22;10420;48.542;12.270;2022-11-20T08:08:25;5.20;99.90
20524;DHT22;10420;48.542;12.270;2022-11-20T08:13:26;5.40;99.90
20524;DHT22;10420;48.542;12.270;2022-11-20T08:18:45;5.50;99.90
20524;DHT22;10420;48.542;12.270;2022-11-20T08:23:46;5.50;99.90
20524;DHT22;10420;48.542;12.270;2022-11-20T08:28:47;5.60;99.90
20524;DHT22;10420;48.542;12.270;2022-11-20T08:33:48;5.80;99.90
20524;DHT22;10420;48.542;12.270;2022-11-20T08:38:53;6.00;99.90
20524;DHT22;10420;48.542;12.270;2022-11-20T08:43:57;6.20;99.90
20524;DHT22;10420;48.542;12.270;2022-11-20T08:48:57;6.10;99.90
20524;DHT22;10420;48.542;12.270;2022-11-20T08:53:58;6.10;99.90
20524;DHT22;10420;48.542;12.270;2022-11-20T08:58:59;6.20;99.90
20524;DHT22;10420;48.542;12.270;2022-11-20T09:04:00;6.30;99.90
20524;DHT22;10420;48.542;12.270;2022-11-20T09:09:00;6.40;99.90
20524;DHT22;10420;48.542;12.270;2022-11-20T09:14:01;6.50;99.90
20524;DHT22;10420;48.542;12.270;2022-11-20T09:19:03;6.30;99.90
20524;DHT22;10420;48.542;12.270;2022-11-20T09:24:05;6.30;99.90
20524;DHT22;10420;48.542;12.270;2022-11-20T09:29:05;6.20;99.90
20524;DHT22;10420;48.542;12.270;2022-11-20T09:34:06;6.00;99.90
20524;DHT22;10420;48.542;12.270;2022-11-20T09:39:06;6.00;99.90
20524;DHT22;10420;48.542;12.270;2022-11-20T09:55:02;6.00;99.90
20524;DHT22;10420;48.542;12.270;2022-11-20T10:00:06;6.20;99.90
20524;DHT22;10420;48.542;12.270;2022-11-20T10:05:24;6.20;99.90
20524;DHT22;10420;48.542;12.270;2022-11-20T10:10:35;6.30;99.90
20524;DHT22;10420;48.542;12.270;2022-11-20T10:21:20;6.80;99.90
20524;DHT22;10420;48.542;12.270;2022-11-20T10:26:35;7.20;99.90
20524;DHT22;10420;48.542;12.270;2022-11-20T10:31:44;8.00;99.90
20524;DHT22;10420;48.542;12.270;2022-11-20T10:37:27;7.60;99.90
20524;DHT22;10420;48.542;12.270;2022-11-20T10:42:38;7.20;99.90
20524;DHT22;10420;48.542;12.270;2022-11-20T10:47:43;7.10;99.90
20524;DHT22;10420;48.542;12.270;2022-11-20T10:53:06;7.00;99.90
20524;DHT22;10420;48.542;12.270;2022-11-20T10:58:36;6.90;99.90
20524;DHT22;10420;48.542;12.270;2022-11-20T11:03:37;6.80;99.90
20524;DHT22;10420;48.542;12.270;2022-11-20T11:08:39;7.00;99.90
20524;DHT22;10420;48.542;12.270;2022-11-20T11:13:40;10.10;99.90
20524;DHT22;10420;48.542;12.270;2022-11-20T11:18:41;8.50;99.90
20524;DHT22;10420;48.542;12.270;2022-11-20T11:23:43;7.70;99.90
20524;DHT22;10420;48.542;12.270;2022-11-20T11:29:01;7.40;99.90
20524;DHT22;10420;48.542;12.270;2022-11-20T11:34:15;7.40;99.90
20524;DHT22;10420;48.542;12.270;2022-11-20T11:39:18;7.60;99.90
20524;DHT22;10420;48.542;12.270;2022-11-20T11:44:32;7.40;99.90
20524;DHT22;10420;48.542;12.270;2022-11-20T11:55:29;7.10;99.90
20524;DHT22;10420;48.542;12.270;2022-11-20T12:00:32;7.20;99.90
20524;DHT22;10420;48.542;12.270;2022-11-20T12:05:42;7.10;99.90
20524;DHT22;10420;48.542;12.270;2022-11-20T12:10:56;7.30;99.90
20524;DHT22;10420;48.542;12.270;2022-11-20T12:15:58;7.30;99.90
20524;DHT22;10420;48.542;12.270;2022-11-20T12:21:18;7.30;99.90
20524;DHT22;10420;48.542;12.270;2022-11-20T12:26:36;7.40;99.90
20524;DHT22;10420;48.542;12.270;2022-11-20T12:32:01;7.30;99.90
20524;DHT22;10420;48.542;12.270;2022-11-20T12:37:30;7.40;99.90
20524;DHT22;10420;48.542;12.270;2022-11-20T12:42:43;7.30;99.90
20524;DHT22;10420;48.542;12.270;2022-11-20T12:53:39;6.90;99.90
20524;DHT22;10420;48.542;12.270;2022-11-20T12:59:09;6.80;99.90
20524;DHT22;10420;48.542;12.270;2022-11-20T13:04:38;6.70;99.90
20524;DHT22;10420;48.542;12.270;2022-11-20T13:09:46;6.60;99.90
20524;DHT22;10420;48.542;12.270;2022-11-20T13:15:41;6.60;99.90
20524;DHT22;10420;48.542;12.270;2022-11-20T13:20:16;6.50;99.90
20524;DHT22;10420;48.542;12.270;2022-11-20T13:30:26;6.50;99.90
20524;DHT22;10420;48.542;12.270;2022-11-20T13:40:29;6.60;99.90
20524;DHT22;10420;48.542;12.270;2022-11-20T13:45:31;6.60;99.90
20524;DHT22;10420;48.542;12.270;2022-11-20T13:50:42;6.60;99.90
20524;DHT22;10420;48.542;12.270;2022-11-20T13:56:11;6.50;99.90
20524;DHT22;10420;48.542;12.270;2022-11-20T14:01:26;6.40;99.90
20524;DHT22;10420;48.542;12.270;2022-11-20T14:06:32;6.40;99.90
20524;DHT22;10420;48.542;12.270;2022-11-20T14:11:33;6.40;99.90
20524;DHT22;10420;48.542;12.270;2022-11-20T14:16:36;6.40;99.90
20524;DHT22;10420;48.542;12.270;2022-11-20T14:21:37;6.40;99.90
20524;DHT22;10420;48.542;12.270;2022-11-20T14:26:45;6.40;99.90
20524;DHT22;10420;48.542;12.270;2022-11-20T14:31:47;6.30;99.90
20524;DHT22;10420;48.542;12.270;2022-11-20T14:36:52;6.40;99.90
20524;DHT22;10420;48.542;12.270;2022-11-20T14:41:54;6.30;99.90
20524;DHT22;10420;48.542;12.270;2022-11-20T14:46:55;6.20;99.90
20524;DHT22;10420;48.542;12.270;2022-11-20T14:52:02;6.20;99.90
20524;DHT22;10420;48.542;12.270;2022-11-20T14:57:04;6.10;99.90
20524;DHT22;10420;48.542;12.270;2022-11-20T15:02:08;6.20;99.90
20524;DHT22;10420;48.542;12.270;2022-11-20T15:07:10;6.20;99.90
20524;DHT22;10420;48.542;12.270;2022-11-20T15:12:17;6.20;99.90
20524;DHT22;10420;48.542;12.270;2022-11-20T15:17:20;6.10;99.90
20524;DHT22;10420;48.542;12.270;2022-11-20T15:22:21;6.00;99.90
20524;DHT22;10420;48.542;12.270;2022-11-20T15:27:22;6.10;99.90
20524;DHT22;10420;48.542;12.270;2022-11-20T15:32:23;6.10;99.90
20524;DHT22;10420;48.542;12.270;2022-11-20T15:37:23;6.10;99.90
20524;DHT22;10420;48.542;12.270;2022-11-20T15:42:24;6.00;99.90
20524;DHT22;10420;48.542;12.270;2022-11-20T15:47:30;6.00;99.90
20524;DHT22;10420;48.542;12.270;2022-11-20T15:52:31;6.00;99.90
20524;DHT22;10420;48.542;12.270;2022-11-20T15:57:32;6.00;99.90
20524;DHT22;10420;48.542;12.270;2022-11-20T16:02:32;5.90;99.90
20524;DHT22;10420;48.542;12.270;2022-11-20T16:07:33;5.90;99.90
20524;DHT22;10420;48.542;12.270;2022-11-20T16:12:34;5.80;99.90
20524;DHT22;10420;48.542;12.270;2022-11-20T16:17:53;5.70;99.90
20524;DHT22;10420;48.542;12.270;2022-11-20T16:22:54;5.60;99.90
20524;DHT22;10420;48.542;12.270;2022-11-20T16:27:54;5.50;99.90
20524;DHT22;10420;48.542;12.270;2022-11-20T16:32:55;5.40;99.90
20524;DHT22;10420;48.542;12.270;2022-11-20T16:37:56;5.40;99.90
20524;DHT22;10420;48.542;12.270;2022-11-20T16:43:07;5.20;99.90
20524;DHT22;10420;48.542;12.270;2022-11-20T16:48:13;5.00;99.90
20524;DHT22;10420;48.542;12.270;2022-11-20T16:53:14;4.90;99.90
20524;DHT22;10420;48.542;12.270;2022-11-20T16:58:15;4.70;99.90
20524;DHT22;10420;48.542;12.270;2022-11-20T17:03:16;4.60;99.90
20524;DHT22;10420;48.542;12.270;2022-11-20T17:08:17;4.60;99.90
20524;DHT22;10420;48.542;12.270;2022-11-20T17:13:17;4.70;99.90
20524;DHT22;10420;48.542;12.270;2022-11-20T17:18:18;4.50;99.90
20524;DHT22;10420;48.542;12.270;2022-11-20T17:23:19;4.40;99.90
20524;DHT22;10420;48.542;12.270;2022-11-20T17:28:19;4.30;99.90
20524;DHT22;10420;48.542;12.270;2022-11-20T17:33:20;4.30;99.90
20524;DHT22;10420;48.542;12.270;2022-11-20T17:38:21;4.20;99.90
20524;DHT22;10420;48.542;12.270;2022-11-20T17:43:21;4.10;99.90
20524;DHT22;10420;48.542;12.270;2022-11-20T17:48:22;3.90;99.90
20524;DHT22;10420;48.542;12.270;2022-11-20T17:53:23;3.90;99.90
20524;DHT22;10420;48.542;12.270;2022-11-20T17:58:26;3.70;99.90
20524;DHT22;10420;48.542;12.270;2022-11-20T18:03:28;3.80;99.90
20524;DHT22;10420;48.542;12.270;2022-11-20T18:08:28;3.80;99.90
20524;DHT22;10420;48.542;12.270;2022-11-20T18:13:29;3.70;99.90
20524;DHT22;10420;48.542;12.270;2022-11-20T18:18:53;3.80;99.90
20524;DHT22;10420;48.542;12.270;2022-11-20T18:23:55;3.80;99.90
20524;DHT22;10420;48.542;12.270;2022-11-20T18:28:56;3.90;99.90
20524;DHT22;10420;48.542;12.270;2022-11-20T18:33:57;3.90;99.90
20524;DHT22;10420;48.542;12.270;2022-11-20T18:38:59;3.90;99.90
20524;DHT22;10420;48.542;12.270;2022-11-20T18:44:02;3.90;99.90
20524;DHT22;10420;48.542;12.270;2022-11-20T18:49:21;3.80;99.90
20524;DHT22;10420;48.542;12.270;2022-11-20T18:54:22;3.80;99.90
20524;DHT22;10420;48.542;12.270;2022-11-20T18:59:23;3.70;99.90
20524;DHT22;10420;48.542;12.270;2022-11-20T19:04:23;3.50;99.90
20524;DHT22;10420;48.542;12.270;2022-11-20T19:09:24;3.50;99.90
20524;DHT22;10420;48.542;12.270;2022-11-20T19:14:25;3.40;99.90
20524;DHT22;10420;48.542;12.270;2022-11-20T19:19:25;3.20;99.90
20524;DHT22;10420;48.542;12.270;2022-11-20T19:24:26;3.00;99.90
20524;DHT22;10420;48.542;12.270;2022-11-20T19:29:27;3.00;99.90
20524;DHT22;10420;48.542;12.270;2022-11-20T19:34:29;2.90;99.90
20524;DHT22;10420;48.542;12.270;2022-11-20T19:39:30;3.10;99.90
20524;DHT22;10420;48.542;12.270;2022-11-20T19:44:30;2.90;99.90
20524;DHT22;10420;48.542;12.270;2022-11-20T19:49:32;2.80;99.90
20524;DHT22;10420;48.542;12.270;2022-11-20T19:54:32;2.80;99.90
20524;DHT22;10420;48.542;12.270;2022-11-20T19:59:33;2.80;99.90
20524;DHT22;10420;48.542;12.270;2022-11-20T20:04:34;2.70;99.90
20524;DHT22;10420;48.542;12.270;2022-11-20T20:09:35;2.70;99.90
20524;DHT22;10420;48.542;12.270;2022-11-20T20:14:35;2.80;99.90
20524;DHT22;10420;48.542;12.270;2022-11-20T20:19:36;2.70;99.90
20524;DHT22;10420;48.542;12.270;2022-11-20T20:24:37;2.60;99.90
20524;DHT22;10420;48.542;12.270;2022-11-20T20:29:37;2.60;99.90
20524;DHT22;10420;48.542;12.270;2022-11-20T20:34:38;2.50;99.90
20524;DHT22;10420;48.542;12.270;2022-11-20T20:39:38;2.50;99.90
20524;DHT22;10420;48.542;12.270;2022-11-20T20:44:39;2.50;99.90
20524;DHT22;10420;48.542;12.270;2022-11-20T20:49:58;2.50;99.90
20524;DHT22;10420;48.542;12.270;2022-11-20T20:54:59;2.50;99.90
20524;DHT22;10420;48.542;12.270;2022-11-20T21:00:00;2.60;99.90
20524;DHT22;10420;48.542;12.270;2022-11-20T21:05:00;2.60;99.90
20524;DHT22;10420;48.542;12.270;2022-11-20T21:10:01;2.60;99.90
20524;DHT22;10420;48.542;12.270;2022-11-20T21:15:02;2.60;99.90
20524;DHT22;10420;48.542;12.270;2022-11-20T21:20:03;2.50;99.90
20524;DHT22;10420;48.542;12.270;2022-11-20T21:25:23;2.60;99.90
20524;DHT22;10420;48.542;12.270;2022-11-20T21:30:24;2.60;99.90
20524;DHT22;10420;48.542;12.270;2022-11-20T21:35:25;2.80;99.90
20524;DHT22;10420;48.542;12.270;2022-11-20T21:40:26;2.80;99.90
20524;DHT22;10420;48.542;12.270;2022-11-20T21:45:26;2.90;99.90
20524;DHT22;10420;48.542;12.270;2022-11-20T21:50:27;2.90;99.90
20524;DHT22;10420;48.542;12.270;2022-11-20T21:55:27;3.00;99.90
20524;DHT22;10420;48.542;12.270;2022-11-20T22:00:28;3.10;99.90
20524;DHT22;10420;48.542;12.270;2022-11-20T22:05:29;3.20;99.90
20524;DHT22;10420;48.542;12.270;2022-11-20T22:10:29;3.30;99.90
20524;DHT22;10420;48.542;12.270;2022-11-20T22:15:30;3.30;99.90
20524;DHT22;10420;48.542;12.270;2022-11-20T22:20:31;3.40;99.90
20524;DHT22;10420;48.542;12.270;2022-11-20T22:25:32;3.40;99.90
20524;DHT22;10420;48.542;12.270;2022-11-20T22:30:32;3.40;99.90
20524;DHT22;10420;48.542;12.270;2022-11-20T22:35:33;3.60;99.90
20524;DHT22;10420;48.542;12.270;2022-11-20T22:40:34;3.70;99.90
20524;DHT22;10420;48.542;12.270;2022-11-20T22:45:34;4.00;99.90
20524;DHT22;10420;48.542;12.270;2022-11-20T22:50:35;4.10;99.90
20524;DHT22;10420;48.542;12.270;2022-11-20T22:55:36;4.00;99.90
20524;DHT22;10420;48.542;12.270;2022-11-20T23:00:36;3.90;99.90
20524;DHT22;10420;48.542;12.270;2022-11-20T23:05:37;3.90;99.90
20524;DHT22;10420;48.542;12.270;2022-11-20T23:10:37;3.80;99.90
20524;DHT22;10420;48.542;12.270;2022-11-20T23:15:38;3.90;99.90
20524;DHT22;10420;48.542;12.270;2022-11-20T23:20:39;3.90;99.90
20524;DHT22;10420;48.542;12.270;2022-11-20T23:25:39;3.90;99.90
20524;DHT22;10420;48.542;12.270;2022-11-20T23:30:40;3.90;99.90
20524;DHT22;10420;48.542;12.270;2022-11-20T23:35:40;3.90;99.90
20524;DHT22;10420;48.542;12.270;2022-11-20T23:40:45;4.00;99.90
20524;DHT22;10420;48.542;12.270;2022-11-20T23:45:52;3.80;99.90
20524;DHT22;10420;48.542;12.270;2022-11-20T23:50:53;3.90;99.90
20524;DHT22;10420;48.542;12.270;2022-11-20T23:55:56;4.00;99.90
